Time;durP1;ratioP1;P1;durP2;ratioP2;P2;SDS_P1;SDS_P2;PMS_P1;PMS_P2;Temp;Humidity;BMP_temperature;BMP_pressure;BME280_temperature;BME280_humidity;BME280_pressure;Samples;Min_cycle;Max_cycle;Signal;HPM_P1;HPM_P2
2021/12/11 00:00:44;;;;;;;1.95;1.85;;;2.60;99.90;;;;;;5035089;28;20225;-85
2021/12/11 00:03:16;;;;;;;2.70;2.50;;;2.60;99.90;;;;;;5035627;28;20213;-86
2021/12/11 00:05:47;;;;;;;1.85;1.75;;;2.70;99.90;;;;;;5036016;28;20208;-85
2021/12/11 00:08:16;;;;;;;3.05;2.85;;;2.70;99.90;;;;;;5035906;28;20208;-85
2021/12/11 00:10:49;;;;;;;1.88;1.75;;;2.70;99.90;;;;;;5035616;28;20228;-84
2021/12/11 00:13:22;;;;;;;2.65;2.42;;;2.60;99.90;;;;;;5035595;28;20694;-84
2021/12/11 00:15:50;;;;;;;3.03;2.58;;;2.60;99.90;;;;;;5035980;28;20612;-82
2021/12/11 00:18:20;;;;;;;1.60;1.50;;;2.60;99.90;;;;;;5035658;28;20305;-84
2021/12/11 00:20:53;;;;;;;2.28;2.08;;;2.60;99.90;;;;;;5035662;28;20232;-84
2021/12/11 00:23:22;;;;;;;2.47;2.20;;;2.60;99.90;;;;;;5036320;28;20201;-83
2021/12/11 00:25:51;;;;;;;3.00;2.03;;;2.60;99.90;;;;;;5036266;28;20218;-83
2021/12/11 00:28:17;;;;;;;2.50;2.25;;;2.60;99.90;;;;;;5036062;28;20205;-83
2021/12/11 00:30:46;;;;;;;1.70;1.60;;;2.60;99.90;;;;;;5036321;28;20226;-83
2021/12/11 00:33:16;;;;;;;1.98;1.88;;;2.60;99.90;;;;;;5017832;28;20215;-86
2021/12/11 00:35:43;;;;;;;3.72;3.50;;;2.60;99.90;;;;;;5017668;28;20694;-86
2021/12/11 00:38:13;;;;;;;2.95;2.58;;;2.60;99.90;;;;;;5017566;28;20226;-85
2021/12/11 00:40:41;;;;;;;2.70;2.50;;;2.60;99.90;;;;;;5017014;28;20235;-84
2021/12/11 00:43:15;;;;;;;1.25;1.25;;;2.60;99.90;;;;;;5039017;28;20204;-85
2021/12/11 00:45:43;;;;;;;2.38;2.08;;;2.60;99.90;;;;;;5037609;28;20283;-85
2021/12/11 00:48:12;;;;;;;2.70;2.20;;;2.70;99.90;;;;;;5037719;28;20662;-84
2021/12/11 00:50:42;;;;;;;1.50;1.40;;;2.70;99.90;;;;;;5037072;28;20231;-83
2021/12/11 00:53:13;;;;;;;3.05;2.85;;;2.60;99.90;;;;;;5037474;28;20209;-83
2021/12/11 00:55:43;;;;;;;2.65;2.08;;;2.70;99.90;;;;;;5037152;28;20204;-84
2021/12/11 00:58:14;;;;;;;1.90;1.70;;;2.70;99.90;;;;;;5037399;28;20227;-84
2021/12/11 01:00:45;;;;;;;3.20;2.15;;;2.70;99.90;;;;;;5035960;28;20237;-84
2021/12/11 01:03:14;;;;;;;2.28;2.17;;;2.60;99.90;;;;;;5037604;28;20212;-83
2021/12/11 01:05:45;;;;;;;2.38;2.22;;;2.70;99.90;;;;;;5036765;28;20203;-83
2021/12/11 01:08:20;;;;;;;1.35;1.33;;;2.60;99.90;;;;;;5037303;28;20203;-83
2021/12/11 01:10:48;;;;;;;2.08;1.98;;;2.60;99.90;;;;;;5036787;28;20222;-83
2021/12/11 01:13:20;;;;;;;2.30;2.20;;;2.70;99.90;;;;;;5037472;28;20214;-82
2021/12/11 01:15:54;;;;;;;1.98;1.80;;;2.70;99.90;;;;;;5036923;28;20206;-83
2021/12/11 01:18:33;;;;;;;3.28;3.10;;;2.70;99.90;;;;;;5038049;28;20228;-83
2021/12/11 01:21:12;;;;;;;2.90;2.00;;;2.60;99.90;;;;;;5037803;28;20250;-84
2021/12/11 01:24:07;;;;;;;2.60;2.40;;;2.60;99.90;;;;;;5040935;28;20569;-82
2021/12/11 01:26:35;;;;;;;2.17;2.08;;;2.70;99.90;;;;;;5040738;28;20201;-84
2021/12/11 01:29:04;;;;;;;1.85;1.75;;;2.70;99.90;;;;;;5039065;28;20219;-83
2021/12/11 01:31:31;;;;;;;1.75;1.65;;;2.70;99.90;;;;;;5039044;28;20588;-83
2021/12/11 01:33:58;;;;;;;2.15;1.95;;;2.60;99.90;;;;;;5038687;28;20576;-83
2021/12/11 01:36:25;;;;;;;2.50;2.30;;;2.70;99.90;;;;;;5039561;28;20243;-83
2021/12/11 01:38:55;;;;;;;1.80;1.70;;;2.80;99.90;;;;;;5039155;28;20216;-83
2021/12/11 01:41:23;;;;;;;2.10;1.90;;;2.80;99.90;;;;;;5038935;28;20623;-83
2021/12/11 01:43:54;;;;;;;2.20;2.10;;;2.70;99.90;;;;;;5038948;28;20207;-83
2021/12/11 01:46:28;;;;;;;2.53;2.33;;;2.80;99.90;;;;;;5039506;28;20231;-83
2021/12/11 01:49:00;;;;;;;1.35;1.25;;;2.80;99.90;;;;;;5039389;28;20195;-83
2021/12/11 01:51:31;;;;;;;1.92;1.73;;;2.80;99.90;;;;;;5038851;28;20213;-83
2021/12/11 01:54:02;;;;;;;1.55;1.45;;;2.80;99.90;;;;;;5038756;28;20214;-83
2021/12/11 01:56:31;;;;;;;1.67;1.58;;;2.90;99.90;;;;;;5038752;28;20231;-83
2021/12/11 01:59:04;;;;;;;1.65;1.55;;;2.80;99.90;;;;;;5039137;28;20262;-83
2021/12/11 02:01:37;;;;;;;2.00;1.90;;;2.90;99.90;;;;;;5039077;28;20219;-83
2021/12/11 02:04:07;;;;;;;2.10;2.00;;;2.90;99.90;;;;;;5038604;28;20236;-83
2021/12/11 02:06:40;;;;;;;1.85;1.75;;;2.90;99.90;;;;;;5038700;28;20203;-83
2021/12/11 02:09:13;;;;;;;2.03;1.92;;;2.80;99.90;;;;;;5038251;28;20220;-83
2021/12/11 02:11:41;;;;;;;1.92;1.83;;;2.80;99.90;;;;;;5018926;28;20208;-83
2021/12/11 02:14:08;;;;;;;2.08;1.63;;;2.70;99.90;;;;;;5019457;28;20223;-83
2021/12/11 02:16:42;;;;;;;2.00;1.90;;;2.70;99.90;;;;;;5037753;28;20198;-83
2021/12/11 02:19:14;;;;;;;2.80;1.70;;;2.60;99.90;;;;;;5038705;28;20219;-83
2021/12/11 02:21:56;;;;;;;2.13;1.92;;;2.60;99.90;;;;;;5038362;28;20206;-83
2021/12/11 02:24:25;;;;;;;1.73;1.63;;;2.50;99.90;;;;;;5038440;28;20283;-83
2021/12/11 02:26:54;;;;;;;2.33;2.00;;;2.50;99.90;;;;;;5038763;28;20212;-83
2021/12/11 02:29:26;;;;;;;1.88;1.77;;;2.50;99.90;;;;;;5038049;28;20219;-83
2021/12/11 02:31:58;;;;;;;2.65;1.90;;;2.50;99.90;;;;;;5038467;28;20209;-83
2021/12/11 02:34:29;;;;;;;1.95;1.85;;;2.40;99.90;;;;;;5040612;28;20199;-84
2021/12/11 02:37:14;;;;;;;1.88;1.40;;;2.20;99.90;;;;;;5042588;28;20307;-84
2021/12/11 02:39:46;;;;;;;1.30;1.15;;;2.10;99.90;;;;;;5039941;28;20710;-84
2021/12/11 04:04:24;;;;;;;;;;;;;;;;;;;;;
2021/12/11 04:10:27;;;;;;;3.20;3.00;;;1.40;99.90;;;;;;4915796;23;20256;-85
2021/12/11 04:16:17;;;;;;;2.67;2.47;;;1.30;99.90;;;;;;4857201;29;20635;-84
2021/12/11 04:18:57;;;;;;;3.42;3.15;;;1.40;99.90;;;;;;4906138;29;20779;-85
2021/12/11 04:21:38;;;;;;;3.10;2.90;;;1.30;99.90;;;;;;4887380;29;20748;-84
2021/12/11 04:27:30;;;;;;;4.28;4.07;;;1.40;99.90;;;;;;4868471;29;20266;-84
2021/12/11 04:30:02;;;;;;;5.28;4.88;;;1.40;99.90;;;;;;4906569;29;20766;-84
2021/12/11 04:32:38;;;;;;;5.30;4.90;;;1.40;99.90;;;;;;4929132;29;20765;-85
2021/12/11 04:35:27;;;;;;;4.43;4.03;;;1.40;99.90;;;;;;4946340;29;20211;-84
2021/12/11 04:38:19;;;;;;;4.85;4.35;;;1.40;99.90;;;;;;4944566;29;20654;-83
2021/12/11 04:40:50;;;;;;;4.68;4.30;;;1.40;99.90;;;;;;4859882;29;20796;-83
2021/12/11 04:43:21;;;;;;;4.78;4.45;;;1.40;99.90;;;;;;4933713;29;20212;-84
2021/12/11 04:45:51;;;;;;;4.50;4.10;;;1.40;99.90;;;;;;4945099;29;20221;-84
2021/12/11 04:48:27;;;;;;;5.75;4.93;;;1.40;99.90;;;;;;4945042;29;20202;-83
2021/12/11 04:51:00;;;;;;;6.63;6.03;;;1.40;99.90;;;;;;4945015;29;20234;-82
2021/12/11 04:53:56;;;;;;;4.10;3.85;;;1.40;99.90;;;;;;4944445;29;20217;-85
2021/12/11 04:57:06;;;;;;;6.68;5.65;;;1.40;99.90;;;;;;4945976;29;20238;-84
2021/12/11 04:59:48;;;;;;;6.90;6.32;;;1.40;99.90;;;;;;4925547;29;20687;-85
2021/12/11 05:02:46;;;;;;;5.25;4.85;;;1.50;99.90;;;;;;4930489;29;20204;-83
2021/12/11 05:05:19;;;;;;;6.10;5.50;;;1.40;99.90;;;;;;4945754;29;20289;-84
2021/12/11 05:08:01;;;;;;;7.35;6.50;;;1.40;99.90;;;;;;4944631;29;20271;-85
2021/12/11 05:10:37;;;;;;;6.18;5.60;;;1.40;99.90;;;;;;4944769;29;20287;-85
2021/12/11 05:13:05;;;;;;;6.30;5.70;;;1.40;99.90;;;;;;4945348;29;20305;-85
2021/12/11 05:15:36;;;;;;;6.38;5.78;;;1.50;99.90;;;;;;4945130;29;20206;-84
2021/12/11 05:18:06;;;;;;;7.18;5.68;;;1.50;99.90;;;;;;4945023;29;20221;-84
2021/12/11 05:20:34;;;;;;;6.40;5.63;;;1.40;99.90;;;;;;4943549;29;20232;-82
2021/12/11 05:23:02;;;;;;;5.22;4.70;;;1.50;99.90;;;;;;4944596;29;20233;-82
2021/12/11 05:25:30;;;;;;;5.97;5.55;;;1.50;99.90;;;;;;4944249;29;20205;-82
2021/12/11 05:27:58;;;;;;;7.75;6.95;;;1.50;99.90;;;;;;4945043;29;20214;-83
2021/12/11 05:30:28;;;;;;;7.63;6.80;;;1.60;99.90;;;;;;4943944;29;20255;-84
2021/12/11 05:32:58;;;;;;;9.02;8.13;;;1.50;99.90;;;;;;4944676;29;20206;-84
2021/12/11 05:35:27;;;;;;;6.57;6.07;;;1.50;99.90;;;;;;4943669;29;20214;-81
2021/12/11 05:37:55;;;;;;;7.00;6.30;;;1.50;99.90;;;;;;4944378;29;20213;-84
2021/12/11 05:40:24;;;;;;;8.35;7.55;;;1.50;99.90;;;;;;4943383;29;20226;-84
2021/12/11 05:42:51;;;;;;;6.68;6.10;;;1.60;99.90;;;;;;4944029;29;20219;-84
2021/12/11 05:45:18;;;;;;;6.78;6.18;;;1.60;99.90;;;;;;4943646;29;20205;-84
2021/12/11 05:47:46;;;;;;;6.38;5.78;;;1.60;99.90;;;;;;4943295;29;20209;-83
2021/12/11 05:50:18;;;;;;;7.68;6.90;;;1.50;99.90;;;;;;4942291;29;20226;-84
2021/12/11 05:52:47;;;;;;;10.98;6.97;;;1.50;99.90;;;;;;4941910;29;20213;-84
2021/12/11 05:55:17;;;;;;;9.68;8.88;;;1.50;99.90;;;;;;4942810;29;20210;-83
2021/12/11 05:57:50;;;;;;;10.02;8.45;;;1.50;99.90;;;;;;4943246;29;20210;-82
2021/12/11 06:00:19;;;;;;;8.45;7.53;;;1.60;99.90;;;;;;4941830;29;20620;-84
2021/12/11 06:02:46;;;;;;;7.60;6.75;;;1.50;99.90;;;;;;4942540;29;20209;-82
2021/12/11 06:05:13;;;;;;;7.65;6.95;;;1.50;99.90;;;;;;4943065;29;20206;-84
2021/12/11 06:07:43;;;;;;;8.40;7.03;;;1.50;99.90;;;;;;4943071;29;20209;-84
2021/12/11 06:10:13;;;;;;;9.68;8.73;;;1.50;99.90;;;;;;4942778;29;20233;-83
2021/12/11 06:12:40;;;;;;;9.18;8.02;;;1.50;99.90;;;;;;4943675;29;20689;-83
2021/12/11 06:15:10;;;;;;;7.55;6.32;;;1.50;99.90;;;;;;4943557;29;20220;-85
2021/12/11 06:17:41;;;;;;;8.07;7.43;;;1.50;99.90;;;;;;4944095;29;20241;-85
2021/12/11 06:20:10;;;;;;;8.60;7.43;;;1.50;99.90;;;;;;4943294;29;20793;-82
2021/12/11 06:22:37;;;;;;;10.35;8.93;;;1.50;99.90;;;;;;4943958;29;20209;-84
2021/12/11 06:25:08;;;;;;;7.80;7.00;;;1.50;99.90;;;;;;4943531;29;20217;-85
2021/12/11 06:27:35;;;;;;;8.70;7.78;;;1.50;99.90;;;;;;4944034;29;20205;-84
2021/12/11 06:30:02;;;;;;;7.57;6.88;;;1.50;99.90;;;;;;4944051;29;20598;-85
2021/12/11 06:32:30;;;;;;;8.95;7.47;;;1.50;99.90;;;;;;4944890;29;20206;-83
2021/12/11 06:35:00;;;;;;;6.97;5.88;;;1.60;99.90;;;;;;4944558;29;20210;-85
2021/12/11 06:37:29;;;;;;;9.07;6.97;;;1.60;99.90;;;;;;4944574;29;20209;-84
2021/12/11 06:39:56;;;;;;;7.40;6.70;;;1.50;99.90;;;;;;4943638;29;20324;-85
2021/12/11 06:42:25;;;;;;;8.10;7.40;;;1.50;99.90;;;;;;4944144;29;20236;-85
2021/12/11 06:44:55;;;;;;;10.00;6.70;;;1.50;99.90;;;;;;4943925;29;20301;-85
2021/12/11 06:47:26;;;;;;;8.02;7.22;;;1.50;99.90;;;;;;4943705;29;20297;-83
2021/12/11 06:50:00;;;;;;;8.15;7.35;;;1.50;99.90;;;;;;4944028;29;20333;-85
2021/12/11 06:52:29;;;;;;;10.95;8.93;;;1.50;99.90;;;;;;4943994;29;20221;-84
2021/12/11 06:54:56;;;;;;;9.57;8.38;;;1.50;99.90;;;;;;4944566;29;20215;-85
2021/12/11 06:57:23;;;;;;;12.73;10.13;;;1.60;99.90;;;;;;4944211;29;20209;-83
2021/12/11 06:59:55;;;;;;;13.70;9.70;;;1.50;99.90;;;;;;4944335;29;20237;-85
2021/12/11 07:02:23;;;;;;;8.15;6.85;;;1.60;99.90;;;;;;4943770;29;20214;-84
2021/12/11 07:04:54;;;;;;;10.18;9.18;;;1.60;99.90;;;;;;4944723;29;20213;-83
2021/12/11 07:07:25;;;;;;;10.68;9.68;;;1.60;99.90;;;;;;4948547;29;20210;-83
2021/12/11 07:09:54;;;;;;;11.48;10.32;;;1.60;99.90;;;;;;4949118;29;20228;-85
2021/12/11 07:12:26;;;;;;;8.63;7.78;;;1.60;99.90;;;;;;4948014;29;20211;-84
2021/12/11 07:14:55;;;;;;;9.75;7.75;;;1.50;99.90;;;;;;4949120;29;20221;-85
2021/12/11 07:17:23;;;;;;;12.65;11.13;;;1.50;99.90;;;;;;4949572;29;20226;-83
2021/12/11 07:19:53;;;;;;;12.90;9.93;;;1.50;99.90;;;;;;4949745;29;20230;-83
2021/12/11 07:22:22;;;;;;;9.75;8.75;;;1.50;99.90;;;;;;4944552;29;20212;-85
2021/12/11 07:24:52;;;;;;;9.65;7.97;;;1.50;99.90;;;;;;4944021;29;20228;-85
2021/12/11 07:27:19;;;;;;;10.82;9.60;;;1.60;99.90;;;;;;4943546;29;20223;-84
2021/12/11 07:29:46;;;;;;;13.75;12.20;;;1.70;99.90;;;;;;4943071;29;20729;-83
2021/12/11 07:32:13;;;;;;;11.63;9.60;;;1.70;99.90;;;;;;4939894;29;20217;-83
2021/12/11 07:34:41;;;;;;;13.48;11.75;;;1.70;99.90;;;;;;4939987;29;20215;-84
2021/12/11 07:37:08;;;;;;;13.88;10.68;;;1.80;99.90;;;;;;4939660;29;20213;-83
2021/12/11 07:39:36;;;;;;;13.57;11.30;;;1.80;99.90;;;;;;4939646;29;20226;-83
2021/12/11 07:42:04;;;;;;;14.05;10.95;;;1.90;99.90;;;;;;4940232;29;20211;-83
2021/12/11 07:44:31;;;;;;;15.30;10.63;;;1.80;99.90;;;;;;4938841;29;20209;-83
2021/12/11 07:47:00;;;;;;;13.57;11.80;;;1.70;99.90;;;;;;4939687;29;20699;-83
2021/12/11 07:49:27;;;;;;;9.85;8.75;;;1.70;99.90;;;;;;4939509;29;20231;-83
2021/12/11 07:51:54;;;;;;;10.15;9.25;;;1.70;99.90;;;;;;4939313;29;20210;-83
2021/12/11 07:54:21;;;;;;;12.90;11.25;;;1.60;99.90;;;;;;4939458;29;20207;-84
2021/12/11 07:56:49;;;;;;;11.38;10.02;;;1.60;99.90;;;;;;4939098;29;20210;-83
2021/12/11 07:59:16;;;;;;;16.75;12.10;;;1.60;99.90;;;;;;4938781;29;20229;-83
2021/12/11 08:01:46;;;;;;;14.60;13.18;;;1.60;99.90;;;;;;4919356;29;20702;-82
2021/12/11 08:04:13;;;;;;;12.70;11.00;;;1.60;99.90;;;;;;4937579;29;20209;-83
2021/12/11 08:06:41;;;;;;;16.38;13.10;;;1.60;99.90;;;;;;4940260;29;20209;-83
2021/12/11 08:09:11;;;;;;;14.52;11.43;;;1.60;99.90;;;;;;4941359;29;20241;-82
2021/12/11 08:11:38;;;;;;;15.15;10.93;;;1.60;99.90;;;;;;4940568;29;20218;-81
2021/12/11 08:14:08;;;;;;;16.77;12.57;;;1.60;99.90;;;;;;4942061;29;20221;-85
2021/12/11 08:16:45;;;;;;;18.27;13.23;;;1.60;99.90;;;;;;4942784;29;20211;-83
2021/12/11 08:19:14;;;;;;;15.77;12.80;;;1.70;99.90;;;;;;4943935;29;20234;-83
2021/12/11 08:21:41;;;;;;;16.70;13.55;;;1.60;99.90;;;;;;4943583;29;20575;-82
2021/12/11 08:24:08;;;;;;;17.23;12.43;;;1.70;99.90;;;;;;4943265;29;20214;-82
2021/12/11 08:26:36;;;;;;;18.25;15.00;;;1.70;99.90;;;;;;4942517;29;20205;-81
2021/12/11 08:29:04;;;;;;;20.10;12.32;;;1.70;99.90;;;;;;4941476;29;20245;-83
2021/12/11 08:31:32;;;;;;;18.83;14.30;;;1.70;99.90;;;;;;4941657;29;20203;-83
2021/12/11 08:34:00;;;;;;;14.00;12.38;;;1.70;99.90;;;;;;4942162;29;20210;-82
2021/12/11 08:36:26;;;;;;;15.77;14.10;;;1.60;99.90;;;;;;4941424;29;20674;-84
2021/12/11 08:38:54;;;;;;;16.73;14.75;;;1.60;99.90;;;;;;4941757;29;20253;-83
2021/12/11 08:41:27;;;;;;;25.40;18.75;;;1.70;99.90;;;;;;4942359;29;20225;-84
2021/12/11 08:44:00;;;;;;;16.88;12.20;;;1.70;99.90;;;;;;4942086;29;20203;-86
2021/12/11 08:46:29;;;;;;;16.70;14.57;;;1.70;99.90;;;;;;4942122;29;20223;-83
2021/12/11 08:49:00;;;;;;;20.65;16.10;;;1.70;99.90;;;;;;4942290;29;20210;-83
2021/12/11 08:51:32;;;;;;;17.30;13.77;;;1.70;99.90;;;;;;4943320;29;20194;-82
2021/12/11 08:53:59;;;;;;;19.10;14.68;;;1.70;99.90;;;;;;4941564;29;20207;-83
2021/12/11 08:56:27;;;;;;;23.17;15.68;;;1.70;99.90;;;;;;4942184;29;20245;-83
2021/12/11 08:58:55;;;;;;;19.05;13.73;;;1.80;99.90;;;;;;4941283;29;20291;-83
2021/12/11 09:01:27;;;;;;;30.67;21.95;;;1.80;99.90;;;;;;4942730;29;20239;-82
2021/12/11 09:03:59;;;;;;;29.17;20.25;;;2.00;99.90;;;;;;4949645;29;20222;-84
2021/12/11 09:06:32;;;;;;;20.92;16.25;;;2.10;99.90;;;;;;4942135;29;20217;-85
2021/12/11 09:09:04;;;;;;;17.10;13.50;;;2.30;99.90;;;;;;4944566;29;20210;-85
2021/12/11 09:11:35;;;;;;;15.02;13.38;;;2.20;99.90;;;;;;4950199;29;20210;-85
2021/12/11 09:14:06;;;;;;;20.52;16.55;;;2.20;99.90;;;;;;4922127;29;20573;-84
2021/12/11 09:16:36;;;;;;;21.08;16.58;;;2.20;99.90;;;;;;4946276;29;20206;-83
2021/12/11 09:19:10;;;;;;;15.18;11.57;;;2.20;99.90;;;;;;4957894;28;20256;-82
2021/12/11 09:21:42;;;;;;;22.77;18.20;;;2.20;99.90;;;;;;4941088;29;20231;-82
2021/12/11 09:24:13;;;;;;;20.67;16.10;;;2.10;99.90;;;;;;4940980;29;20246;-82
2021/12/11 09:26:44;;;;;;;18.83;16.75;;;2.10;99.90;;;;;;4947257;29;20219;-81
2021/12/11 09:29:16;;;;;;;12.70;10.68;;;2.20;99.90;;;;;;4949017;29;20224;-82
2021/12/11 09:31:46;;;;;;;16.77;13.10;;;2.10;99.90;;;;;;4945706;29;20255;-81
2021/12/11 09:34:19;;;;;;;15.25;12.68;;;2.10;99.90;;;;;;4946568;29;20208;-83
2021/12/11 09:36:48;;;;;;;13.90;9.40;;;2.20;99.90;;;;;;4947813;29;20214;-81
2021/12/11 09:39:19;;;;;;;15.55;13.57;;;2.20;99.90;;;;;;4950295;28;20233;-81
2021/12/11 09:41:46;;;;;;;11.27;9.95;;;2.20;99.90;;;;;;4950183;29;20674;-81
2021/12/11 09:44:18;;;;;;;13.32;11.23;;;2.20;99.90;;;;;;4945170;29;20677;-81
2021/12/11 09:46:50;;;;;;;13.20;11.05;;;2.20;99.90;;;;;;4949953;29;20206;-82
2021/12/11 09:49:37;;;;;;;19.58;12.70;;;2.20;99.90;;;;;;4942479;29;20246;-87
2021/12/11 09:52:45;;;;;;;12.20;11.00;;;2.30;99.90;;;;;;4951889;29;20215;-84
2021/12/11 09:55:39;;;;;;;12.68;10.52;;;2.40;99.90;;;;;;4943042;29;20202;-82
2021/12/11 09:58:24;;;;;;;13.20;11.90;;;2.40;99.90;;;;;;4952902;29;20200;-83
2021/12/11 10:00:55;;;;;;;13.23;11.40;;;2.40;99.90;;;;;;4952404;29;20237;-82
2021/12/11 10:03:27;;;;;;;13.63;10.77;;;2.40;99.90;;;;;;4952279;29;20670;-83
2021/12/11 10:05:59;;;;;;;10.15;7.90;;;2.40;99.90;;;;;;4952745;29;20217;-84
2021/12/11 10:08:32;;;;;;;10.52;9.45;;;2.50;99.90;;;;;;4952951;29;20299;-83
2021/12/11 10:11:08;;;;;;;10.07;9.07;;;2.50;99.90;;;;;;4953960;29;20228;-84
2021/12/11 10:13:38;;;;;;;11.35;10.25;;;2.50;99.90;;;;;;4953115;29;20218;-84
2021/12/11 10:16:06;;;;;;;9.52;8.52;;;2.50;99.90;;;;;;4954420;29;20214;-82
2021/12/11 10:18:34;;;;;;;10.02;9.15;;;2.50;99.90;;;;;;4953509;29;20221;-83
2021/12/11 10:21:06;;;;;;;11.32;10.25;;;2.50;99.90;;;;;;4953506;29;20256;-82
2021/12/11 10:23:36;;;;;;;11.10;9.80;;;2.50;99.90;;;;;;4953477;29;20217;-82
2021/12/11 10:26:09;;;;;;;11.27;10.02;;;2.60;99.90;;;;;;4954304;29;20214;-82
2021/12/11 10:28:37;;;;;;;11.55;10.23;;;2.70;99.90;;;;;;4953401;29;20226;-83
2021/12/11 10:31:09;;;;;;;12.57;9.27;;;2.80;99.90;;;;;;4953375;29;20237;-84
2021/12/11 10:33:37;;;;;;;9.85;8.90;;;2.80;99.90;;;;;;4952319;29;20206;-84
2021/12/11 10:36:07;;;;;;;9.85;8.57;;;2.70;99.90;;;;;;4952533;29;20209;-84
2021/12/11 10:38:34;;;;;;;10.45;9.38;;;2.70;99.90;;;;;;4948114;29;20217;-84
2021/12/11 10:41:04;;;;;;;10.48;9.52;;;2.80;99.90;;;;;;4938530;29;20249;-85
2021/12/11 10:43:36;;;;;;;9.57;8.68;;;2.80;99.90;;;;;;4939845;29;20298;-83
2021/12/11 10:46:06;;;;;;;9.60;8.38;;;2.90;99.90;;;;;;4939667;29;20251;-83
2021/12/11 10:48:37;;;;;;;13.52;10.23;;;2.90;99.90;;;;;;4938522;29;20584;-84
2021/12/11 10:51:07;;;;;;;8.13;6.90;;;2.90;99.90;;;;;;4939184;29;20227;-80
2021/12/11 10:53:35;;;;;;;10.85;9.55;;;2.90;99.90;;;;;;4934048;29;20209;-82
2021/12/11 10:56:05;;;;;;;8.02;7.22;;;2.90;99.90;;;;;;4940642;29;20259;-80
2021/12/11 10:58:38;;;;;;;8.90;6.72;;;2.80;99.90;;;;;;4939519;29;20214;-81
2021/12/11 11:01:08;;;;;;;9.00;8.10;;;2.70;99.90;;;;;;4938672;29;20229;-82
2021/12/11 11:03:40;;;;;;;7.68;6.97;;;2.80;99.90;;;;;;4939664;29;20214;-83
2021/12/11 11:06:08;;;;;;;8.93;8.13;;;2.80;99.90;;;;;;4939802;29;20212;-83
2021/12/11 11:08:35;;;;;;;8.57;4.82;;;2.90;99.90;;;;;;4939064;29;20706;-82
2021/12/11 11:11:06;;;;;;;8.88;6.85;;;2.80;99.90;;;;;;4938696;29;20258;-82
2021/12/11 11:13:33;;;;;;;7.50;5.75;;;2.70;99.90;;;;;;4938909;29;20695;-82
2021/12/11 11:16:00;;;;;;;6.18;5.68;;;2.70;99.90;;;;;;4939351;29;20205;-82
2021/12/11 11:18:28;;;;;;;6.60;4.57;;;2.70;99.90;;;;;;4939153;29;20215;-83
2021/12/11 11:21:04;;;;;;;7.18;6.13;;;2.60;99.90;;;;;;4938683;29;20876;-81
2021/12/11 11:23:31;;;;;;;6.45;5.88;;;2.70;99.90;;;;;;4939403;29;20195;-82
2021/12/11 11:26:04;;;;;;;6.13;5.63;;;2.70;99.90;;;;;;4938854;29;20211;-82
2021/12/11 11:28:33;;;;;;;7.35;6.22;;;2.70;99.90;;;;;;4939025;29;20216;-82
2021/12/11 11:31:04;;;;;;;6.68;6.00;;;2.70;99.90;;;;;;4939273;29;20229;-82
2021/12/11 11:33:34;;;;;;;8.50;6.82;;;2.70;99.90;;;;;;4939798;29;20221;-82
2021/12/11 11:36:05;;;;;;;4.78;4.38;;;2.60;99.90;;;;;;4939395;29;20207;-82
2021/12/11 11:38:37;;;;;;;13.13;11.88;;;2.70;99.90;;;;;;4939113;29;20580;-82
2021/12/11 11:41:08;;;;;;;9.68;8.65;;;2.70;99.90;;;;;;4938729;29;20251;-82
2021/12/11 11:43:36;;;;;;;13.40;11.73;;;2.70;99.90;;;;;;4939797;29;20222;-82
2021/12/11 11:46:04;;;;;;;12.95;10.25;;;2.80;99.90;;;;;;4950835;29;20219;-79
2021/12/11 11:48:34;;;;;;;8.63;7.85;;;2.90;99.90;;;;;;4939314;29;20211;-82
2021/12/11 11:51:07;;;;;;;10.15;9.20;;;3.00;99.90;;;;;;4941576;29;20255;-81
2021/12/11 11:53:34;;;;;;;8.25;7.20;;;2.90;99.90;;;;;;4942359;29;20196;-81
2021/12/11 11:56:04;;;;;;;7.72;7.03;;;2.80;99.90;;;;;;4942421;29;20591;-82
2021/12/11 11:58:32;;;;;;;10.85;9.38;;;2.80;99.90;;;;;;4942786;29;20197;-82
2021/12/11 12:01:05;;;;;;;8.38;6.55;;;2.90;99.90;;;;;;4941437;29;20262;-82
2021/12/11 12:03:33;;;;;;;9.20;8.30;;;2.90;99.90;;;;;;4942339;29;20246;-81
2021/12/11 12:06:06;;;;;;;5.65;5.15;;;3.00;99.90;;;;;;4942201;29;20211;-81
2021/12/11 12:08:33;;;;;;;7.22;6.60;;;2.90;99.90;;;;;;4941809;29;20219;-82
2021/12/11 12:11:01;;;;;;;7.22;6.53;;;3.00;99.90;;;;;;4941907;29;20327;-82
2021/12/11 12:13:30;;;;;;;7.95;7.28;;;3.10;99.90;;;;;;4941622;29;20584;-82
2021/12/11 12:16:00;;;;;;;8.25;7.55;;;3.10;99.90;;;;;;4941744;29;20307;-81
2021/12/11 12:18:27;;;;;;;7.90;6.90;;;3.20;99.90;;;;;;4941858;29;20225;-82
2021/12/11 12:20:56;;;;;;;8.50;6.55;;;3.20;99.90;;;;;;4941889;29;20231;-80
2021/12/11 12:23:31;;;;;;;6.75;6.10;;;3.10;99.90;;;;;;4941728;29;20212;-82
2021/12/11 12:26:01;;;;;;;7.80;6.18;;;3.10;99.90;;;;;;4941704;29;20284;-82
2021/12/11 12:28:28;;;;;;;7.70;6.80;;;3.20;99.90;;;;;;4942479;29;20215;-83
2021/12/11 12:30:58;;;;;;;11.65;9.23;;;3.20;99.90;;;;;;4942072;29;20249;-82
2021/12/11 12:33:25;;;;;;;9.98;7.50;;;3.30;99.90;;;;;;4942445;29;20615;-82
2021/12/11 12:35:52;;;;;;;7.88;7.13;;;3.30;99.90;;;;;;4948569;29;20205;-81
2021/12/11 12:38:21;;;;;;;7.97;7.28;;;3.30;99.90;;;;;;4955518;29;20215;-79
2021/12/11 12:40:59;;;;;;;7.55;6.85;;;3.40;99.90;;;;;;4942648;29;20229;-81
2021/12/11 12:43:54;;;;;;;6.50;5.90;;;3.60;99.90;;;;;;4942109;29;20212;-82
2021/12/11 12:46:24;;;;;;;7.72;6.93;;;3.50;99.90;;;;;;4941673;29;20203;-81
2021/12/11 12:48:52;;;;;;;7.90;6.45;;;3.60;99.90;;;;;;4941228;29;20216;-82
2021/12/11 12:51:19;;;;;;;7.22;6.63;;;3.70;99.90;;;;;;4941763;29;20217;-82
2021/12/11 12:53:47;;;;;;;5.82;5.22;;;3.90;99.90;;;;;;4940947;29;20300;-82
2021/12/11 12:56:19;;;;;;;5.43;4.93;;;4.00;99.90;;;;;;4940905;29;20212;-82
2021/12/11 12:58:50;;;;;;;4.95;4.55;;;4.00;99.90;;;;;;4940977;29;20590;-83
2021/12/11 13:01:20;;;;;;;5.28;4.78;;;4.10;99.90;;;;;;4940273;29;20213;-82
2021/12/11 13:03:50;;;;;;;7.38;6.65;;;3.80;99.90;;;;;;4941046;29;20239;-82
2021/12/11 13:06:21;;;;;;;7.40;6.60;;;3.60;99.90;;;;;;4941019;29;20214;-82
2021/12/11 13:08:52;;;;;;;7.53;5.47;;;3.60;99.90;;;;;;4940379;29;20212;-82
2021/12/11 13:11:26;;;;;;;9.90;6.53;;;3.70;99.90;;;;;;4940100;29;20213;-82
2021/12/11 13:13:55;;;;;;;6.03;5.43;;;3.80;99.90;;;;;;4940259;29;20213;-80
2021/12/11 13:16:25;;;;;;;5.22;4.80;;;3.70;99.90;;;;;;4940777;29;20217;-83
2021/12/11 13:18:58;;;;;;;4.80;4.22;;;3.70;99.90;;;;;;4940945;29;20206;-82
2021/12/11 13:21:29;;;;;;;5.30;4.80;;;3.60;99.90;;;;;;4940174;29;20239;-82
2021/12/11 13:24:02;;;;;;;4.70;4.30;;;3.70;99.90;;;;;;4940834;29;20220;-80
2021/12/11 13:26:32;;;;;;;3.60;3.28;;;3.70;99.90;;;;;;4940899;29;20206;-82
2021/12/11 13:29:02;;;;;;;5.90;4.20;;;3.40;99.90;;;;;;4954720;29;20200;-82
2021/12/11 13:31:31;;;;;;;5.82;4.72;;;3.30;99.90;;;;;;4941995;29;20593;-82
2021/12/11 13:33:59;;;;;;;5.47;4.55;;;3.30;99.90;;;;;;4942001;29;20218;-82
2021/12/11 13:36:26;;;;;;;4.60;4.05;;;3.30;99.90;;;;;;4941517;29;20222;-82
2021/12/11 13:38:55;;;;;;;6.00;4.55;;;3.30;99.90;;;;;;4941026;29;20216;-82
2021/12/11 13:41:26;;;;;;;4.68;4.25;;;3.30;99.90;;;;;;4940913;29;20234;-82
2021/12/11 13:43:55;;;;;;;4.15;3.85;;;3.50;99.90;;;;;;4941340;29;20220;-82
2021/12/11 13:46:22;;;;;;;5.70;4.57;;;3.50;99.90;;;;;;4941909;29;20627;-82
2021/12/11 13:48:49;;;;;;;5.57;5.05;;;3.60;99.90;;;;;;4940711;29;20218;-82
2021/12/11 13:51:21;;;;;;;4.57;4.05;;;3.60;99.90;;;;;;4941101;29;20220;-82
2021/12/11 13:53:49;;;;;;;6.10;5.18;;;3.60;99.90;;;;;;4941233;29;20222;-82
2021/12/11 13:56:19;;;;;;;5.32;4.82;;;3.60;99.90;;;;;;4941508;29;20219;-82
2021/12/11 13:58:46;;;;;;;5.43;4.75;;;3.60;99.90;;;;;;4942690;29;20219;-84
2021/12/11 14:01:20;;;;;;;6.10;5.57;;;3.70;99.90;;;;;;4941073;29;20232;-81
2021/12/11 14:03:48;;;;;;;5.38;4.90;;;3.80;99.90;;;;;;4940934;29;20206;-82
2021/12/11 14:06:15;;;;;;;5.85;5.30;;;3.80;99.90;;;;;;4942632;29;20209;-82
2021/12/11 14:08:43;;;;;;;7.88;7.15;;;3.80;99.90;;;;;;4942015;29;20209;-82
2021/12/11 14:11:12;;;;;;;6.05;5.55;;;3.80;99.90;;;;;;4941840;29;20288;-81
2021/12/11 14:13:40;;;;;;;6.00;5.40;;;3.70;99.90;;;;;;4940602;29;20219;-82
2021/12/11 14:16:09;;;;;;;5.43;4.97;;;3.80;99.90;;;;;;4939373;29;20220;-81
2021/12/11 14:18:39;;;;;;;7.82;7.07;;;4.00;99.90;;;;;;4939648;29;20222;-81
2021/12/11 14:21:09;;;;;;;6.05;5.60;;;4.10;99.90;;;;;;4942322;29;20241;-83
2021/12/11 14:23:40;;;;;;;7.18;5.10;;;4.00;99.90;;;;;;4943085;29;20216;-84
2021/12/11 14:26:10;;;;;;;8.13;6.82;;;4.00;99.90;;;;;;4940260;29;20218;-81
2021/12/11 14:28:37;;;;;;;9.43;7.30;;;3.90;99.90;;;;;;4941345;29;20221;-83
2021/12/11 14:31:07;;;;;;;7.65;6.45;;;4.00;99.90;;;;;;4940295;29;20233;-81
2021/12/11 14:33:35;;;;;;;6.80;6.20;;;4.00;99.90;;;;;;4940620;29;20220;-82
2021/12/11 14:36:07;;;;;;;7.97;7.28;;;4.00;99.90;;;;;;4940162;29;20209;-83
2021/12/11 14:38:34;;;;;;;7.38;6.72;;;4.20;99.90;;;;;;4940447;29;20226;-82
2021/12/11 14:41:02;;;;;;;7.88;6.72;;;4.20;99.90;;;;;;4940401;29;20239;-82
2021/12/11 14:43:29;;;;;;;8.05;7.30;;;4.10;99.90;;;;;;4940519;29;20237;-82